sensor_id;sensor_type;location;lat;lon;timestamp;P1;durP1;ratioP1;P2;durP2;ratioP2
11034;SDS011;5571;48.110;-1.706;2023-09-18T00:00:23;5.88;;;3.67;;
11034;SDS011;5571;48.110;-1.706;2023-09-18T00:02:48;6.20;;;3.67;;
11034;SDS011;5571;48.110;-1.706;2023-09-18T00:05:14;6.40;;;3.67;;
11034;SDS011;5571;48.110;-1.706;2023-09-18T00:07:44;12.27;;;4.32;;
11034;SDS011;5571;48.110;-1.706;2023-09-18T00:10:10;7.63;;;3.95;;
11034;SDS011;5571;48.110;-1.706;2023-09-18T00:12:36;7.32;;;4.00;;
11034;SDS011;5571;48.110;-1.706;2023-09-18T00:15:02;7.47;;;3.75;;
11034;SDS011;5571;48.110;-1.706;2023-09-18T00:17:29;9.25;;;4.00;;
11034;SDS011;5571;48.110;-1.706;2023-09-18T00:19:54;7.13;;;4.07;;
11034;SDS011;5571;48.110;-1.706;2023-09-18T00:22:20;6.78;;;4.15;;
11034;SDS011;5571;48.110;-1.706;2023-09-18T00:24:46;7.85;;;4.32;;
11034;SDS011;5571;48.110;-1.706;2023-09-18T00:27:12;6.75;;;4.25;;
11034;SDS011;5571;48.110;-1.706;2023-09-18T00:29:38;9.73;;;4.13;;
11034;SDS011;5571;48.110;-1.706;2023-09-18T00:32:04;8.13;;;4.00;;
11034;SDS011;5571;48.110;-1.706;2023-09-18T00:34:31;6.82;;;4.13;;
11034;SDS011;5571;48.110;-1.706;2023-09-18T00:36:57;8.65;;;4.20;;
11034;SDS011;5571;48.110;-1.706;2023-09-18T00:39:24;8.70;;;4.38;;
11034;SDS011;5571;48.110;-1.706;2023-09-18T00:41:50;10.80;;;4.45;;
11034;SDS011;5571;48.110;-1.706;2023-09-18T00:44:19;8.02;;;4.30;;
11034;SDS011;5571;48.110;-1.706;2023-09-18T00:46:45;10.20;;;4.25;;
11034;SDS011;5571;48.110;-1.706;2023-09-18T00:49:11;11.70;;;4.32;;
11034;SDS011;5571;48.110;-1.706;2023-09-18T00:51:37;9.60;;;4.47;;
11034;SDS011;5571;48.110;-1.706;2023-09-18T00:54:03;9.00;;;4.65;;
11034;SDS011;5571;48.110;-1.706;2023-09-18T00:56:29;9.55;;;4.47;;
11034;SDS011;5571;48.110;-1.706;2023-09-18T00:58:54;8.55;;;4.45;;
11034;SDS011;5571;48.110;-1.706;2023-09-18T01:01:20;11.95;;;5.10;;
11034;SDS011;5571;48.110;-1.706;2023-09-18T01:03:48;5.60;;;3.90;;
11034;SDS011;5571;48.110;-1.706;2023-09-18T01:06:18;7.90;;;4.20;;
11034;SDS011;5571;48.110;-1.706;2023-09-18T01:08:45;9.60;;;4.95;;
11034;SDS011;5571;48.110;-1.706;2023-09-18T01:14:29;8.70;;;4.97;;
11034;SDS011;5571;48.110;-1.706;2023-09-18T01:17:00;11.90;;;5.20;;
11034;SDS011;5571;48.110;-1.706;2023-09-18T01:22:12;11.27;;;4.90;;
11034;SDS011;5571;48.110;-1.706;2023-09-18T01:24:40;7.65;;;4.97;;
11034;SDS011;5571;48.110;-1.706;2023-09-18T01:27:10;13.30;;;5.65;;
11034;SDS011;5571;48.110;-1.706;2023-09-18T01:29:38;11.80;;;5.32;;
11034;SDS011;5571;48.110;-1.706;2023-09-18T01:32:04;11.88;;;5.50;;
11034;SDS011;5571;48.110;-1.706;2023-09-18T01:34:34;11.75;;;5.53;;
11034;SDS011;5571;48.110;-1.706;2023-09-18T01:37:05;10.23;;;5.68;;
11034;SDS011;5571;48.110;-1.706;2023-09-18T01:39:32;8.13;;;5.60;;
11034;SDS011;5571;48.110;-1.706;2023-09-18T01:41:59;12.65;;;5.70;;
11034;SDS011;5571;48.110;-1.706;2023-09-18T01:44:27;13.00;;;6.03;;
11034;SDS011;5571;48.110;-1.706;2023-09-18T01:46:54;11.98;;;6.20;;
11034;SDS011;5571;48.110;-1.706;2023-09-18T01:49:42;14.32;;;6.05;;
11034;SDS011;5571;48.110;-1.706;2023-09-18T01:52:08;10.32;;;5.43;;
11034;SDS011;5571;48.110;-1.706;2023-09-18T01:54:34;13.73;;;6.22;;
11034;SDS011;5571;48.110;-1.706;2023-09-18T01:57:00;13.38;;;6.13;;
11034;SDS011;5571;48.110;-1.706;2023-09-18T01:59:27;10.95;;;6.05;;
11034;SDS011;5571;48.110;-1.706;2023-09-18T02:01:53;13.75;;;6.18;;
11034;SDS011;5571;48.110;-1.706;2023-09-18T02:04:20;12.10;;;6.00;;
11034;SDS011;5571;48.110;-1.706;2023-09-18T02:06:46;11.15;;;6.20;;
11034;SDS011;5571;48.110;-1.706;2023-09-18T02:09:13;8.57;;;5.78;;
11034;SDS011;5571;48.110;-1.706;2023-09-18T02:11:39;7.50;;;5.97;;
11034;SDS011;5571;48.110;-1.706;2023-09-18T02:14:09;11.13;;;6.68;;
11034;SDS011;5571;48.110;-1.706;2023-09-18T02:16:36;10.98;;;6.32;;
11034;SDS011;5571;48.110;-1.706;2023-09-18T02:19:03;9.40;;;6.15;;
11034;SDS011;5571;48.110;-1.706;2023-09-18T02:21:29;11.30;;;6.07;;
11034;SDS011;5571;48.110;-1.706;2023-09-18T02:23:55;8.32;;;6.07;;
11034;SDS011;5571;48.110;-1.706;2023-09-18T02:26:22;11.00;;;6.10;;
11034;SDS011;5571;48.110;-1.706;2023-09-18T02:28:51;8.05;;;6.22;;
11034;SDS011;5571;48.110;-1.706;2023-09-18T02:31:18;7.75;;;6.10;;
11034;SDS011;5571;48.110;-1.706;2023-09-18T02:33:44;12.10;;;6.60;;
11034;SDS011;5571;48.110;-1.706;2023-09-18T02:36:10;8.65;;;6.03;;
11034;SDS011;5571;48.110;-1.706;2023-09-18T02:38:36;7.50;;;5.72;;
11034;SDS011;5571;48.110;-1.706;2023-09-18T02:41:01;7.20;;;6.05;;
11034;SDS011;5571;48.110;-1.706;2023-09-18T02:43:27;7.55;;;6.07;;
11034;SDS011;5571;48.110;-1.706;2023-09-18T02:45:53;12.20;;;6.32;;
11034;SDS011;5571;48.110;-1.706;2023-09-18T02:48:18;8.57;;;5.50;;
11034;SDS011;5571;48.110;-1.706;2023-09-18T02:50:44;9.30;;;6.05;;
11034;SDS011;5571;48.110;-1.706;2023-09-18T02:53:17;9.30;;;5.82;;
11034;SDS011;5571;48.110;-1.706;2023-09-18T02:55:45;8.90;;;6.15;;
11034;SDS011;5571;48.110;-1.706;2023-09-18T02:58:15;11.13;;;6.32;;
11034;SDS011;5571;48.110;-1.706;2023-09-18T03:00:41;7.90;;;5.97;;
11034;SDS011;5571;48.110;-1.706;2023-09-18T03:03:08;7.65;;;6.05;;
11034;SDS011;5571;48.110;-1.706;2023-09-18T03:05:34;9.05;;;6.20;;
11034;SDS011;5571;48.110;-1.706;2023-09-18T03:07:59;6.80;;;6.03;;
11034;SDS011;5571;48.110;-1.706;2023-09-18T03:10:25;10.35;;;5.68;;
11034;SDS011;5571;48.110;-1.706;2023-09-18T03:12:51;8.20;;;5.93;;
11034;SDS011;5571;48.110;-1.706;2023-09-18T03:15:16;8.65;;;5.43;;
11034;SDS011;5571;48.110;-1.706;2023-09-18T03:17:42;8.30;;;6.07;;
11034;SDS011;5571;48.110;-1.706;2023-09-18T03:20:08;9.68;;;5.90;;
11034;SDS011;5571;48.110;-1.706;2023-09-18T03:22:34;8.48;;;5.57;;
11034;SDS011;5571;48.110;-1.706;2023-09-18T03:25:00;9.63;;;5.55;;
11034;SDS011;5571;48.110;-1.706;2023-09-18T03:27:26;8.35;;;5.45;;
11034;SDS011;5571;48.110;-1.706;2023-09-18T03:29:57;12.15;;;5.40;;
11034;SDS011;5571;48.110;-1.706;2023-09-18T03:32:23;6.70;;;5.32;;
11034;SDS011;5571;48.110;-1.706;2023-09-18T03:34:52;6.35;;;4.97;;
11034;SDS011;5571;48.110;-1.706;2023-09-18T03:37:18;12.85;;;5.70;;
11034;SDS011;5571;48.110;-1.706;2023-09-18T03:39:44;5.60;;;4.80;;
11034;SDS011;5571;48.110;-1.706;2023-09-18T03:42:09;6.68;;;5.20;;
11034;SDS011;5571;48.110;-1.706;2023-09-18T03:44:35;6.00;;;5.35;;
11034;SDS011;5571;48.110;-1.706;2023-09-18T03:47:02;5.88;;;5.10;;
11034;SDS011;5571;48.110;-1.706;2023-09-18T03:49:29;8.57;;;5.20;;
11034;SDS011;5571;48.110;-1.706;2023-09-18T03:51:54;6.45;;;5.25;;
11034;SDS011;5571;48.110;-1.706;2023-09-18T03:54:20;6.10;;;4.95;;
11034;SDS011;5571;48.110;-1.706;2023-09-18T03:56:46;6.00;;;5.28;;
11034;SDS011;5571;48.110;-1.706;2023-09-18T03:59:12;10.10;;;5.20;;
11034;SDS011;5571;48.110;-1.706;2023-09-18T04:01:38;6.22;;;5.13;;
11034;SDS011;5571;48.110;-1.706;2023-09-18T04:04:04;6.20;;;5.60;;
11034;SDS011;5571;48.110;-1.706;2023-09-18T04:06:51;7.07;;;5.40;;
11034;SDS011;5571;48.110;-1.706;2023-09-18T04:09:16;5.90;;;5.00;;
11034;SDS011;5571;48.110;-1.706;2023-09-18T04:11:43;8.50;;;5.32;;
11034;SDS011;5571;48.110;-1.706;2023-09-18T04:14:08;6.32;;;5.50;;
11034;SDS011;5571;48.110;-1.706;2023-09-18T04:16:34;7.20;;;5.13;;
11034;SDS011;5571;48.110;-1.706;2023-09-18T04:19:00;5.72;;;5.07;;
11034;SDS011;5571;48.110;-1.706;2023-09-18T04:21:26;10.45;;;5.28;;
11034;SDS011;5571;48.110;-1.706;2023-09-18T04:23:54;8.02;;;5.22;;
11034;SDS011;5571;48.110;-1.706;2023-09-18T04:26:23;8.88;;;4.93;;
11034;SDS011;5571;48.110;-1.706;2023-09-18T04:28:49;5.20;;;4.72;;
11034;SDS011;5571;48.110;-1.706;2023-09-18T04:31:14;6.05;;;4.93;;
11034;SDS011;5571;48.110;-1.706;2023-09-18T04:33:41;5.60;;;5.00;;
11034;SDS011;5571;48.110;-1.706;2023-09-18T04:36:07;5.82;;;5.32;;
11034;SDS011;5571;48.110;-1.706;2023-09-18T04:38:33;5.78;;;4.70;;
11034;SDS011;5571;48.110;-1.706;2023-09-18T04:41:01;6.43;;;5.03;;
11034;SDS011;5571;48.110;-1.706;2023-09-18T04:43:27;6.70;;;5.25;;
11034;SDS011;5571;48.110;-1.706;2023-09-18T04:45:54;7.97;;;5.45;;
11034;SDS011;5571;48.110;-1.706;2023-09-18T04:48:20;6.15;;;4.95;;
11034;SDS011;5571;48.110;-1.706;2023-09-18T04:50:46;5.40;;;4.75;;
11034;SDS011;5571;48.110;-1.706;2023-09-18T04:53:12;6.88;;;4.65;;
11034;SDS011;5571;48.110;-1.706;2023-09-18T04:55:39;6.75;;;4.57;;
11034;SDS011;5571;48.110;-1.706;2023-09-18T04:58:04;6.85;;;4.65;;
11034;SDS011;5571;48.110;-1.706;2023-09-18T05:00:30;5.82;;;5.20;;
11034;SDS011;5571;48.110;-1.706;2023-09-18T05:02:57;8.23;;;5.03;;
11034;SDS011;5571;48.110;-1.706;2023-09-18T05:05:26;6.35;;;5.03;;
11034;SDS011;5571;48.110;-1.706;2023-09-18T05:07:52;7.85;;;5.07;;
11034;SDS011;5571;48.110;-1.706;2023-09-18T05:10:18;6.53;;;4.80;;
11034;SDS011;5571;48.110;-1.706;2023-09-18T05:12:44;6.18;;;5.30;;
11034;SDS011;5571;48.110;-1.706;2023-09-18T05:15:10;6.78;;;4.90;;
11034;SDS011;5571;48.110;-1.706;2023-09-18T05:17:45;5.95;;;5.30;;
11034;SDS011;5571;48.110;-1.706;2023-09-18T05:20:12;5.57;;;4.93;;
11034;SDS011;5571;48.110;-1.706;2023-09-18T05:22:40;10.48;;;5.35;;
11034;SDS011;5571;48.110;-1.706;2023-09-18T05:25:07;7.00;;;5.78;;
11034;SDS011;5571;48.110;-1.706;2023-09-18T05:27:36;6.63;;;5.22;;
11034;SDS011;5571;48.110;-1.706;2023-09-18T05:30:13;8.23;;;5.95;;
11034;SDS011;5571;48.110;-1.706;2023-09-18T05:32:41;7.43;;;5.55;;
11034;SDS011;5571;48.110;-1.706;2023-09-18T05:35:09;8.05;;;5.60;;
11034;SDS011;5571;48.110;-1.706;2023-09-18T05:37:37;7.13;;;5.85;;
11034;SDS011;5571;48.110;-1.706;2023-09-18T05:40:04;8.82;;;5.97;;
11034;SDS011;5571;48.110;-1.706;2023-09-18T05:42:40;7.18;;;5.70;;
11034;SDS011;5571;48.110;-1.706;2023-09-18T05:45:11;6.30;;;5.70;;
11034;SDS011;5571;48.110;-1.706;2023-09-18T05:47:37;9.98;;;5.80;;
11034;SDS011;5571;48.110;-1.706;2023-09-18T05:50:04;11.85;;;6.10;;
11034;SDS011;5571;48.110;-1.706;2023-09-18T05:52:31;6.95;;;5.40;;
11034;SDS011;5571;48.110;-1.706;2023-09-18T05:54:58;9.45;;;5.43;;
11034;SDS011;5571;48.110;-1.706;2023-09-18T05:57:24;10.80;;;5.72;;
11034;SDS011;5571;48.110;-1.706;2023-09-18T05:59:52;7.07;;;5.50;;
11034;SDS011;5571;48.110;-1.706;2023-09-18T06:02:18;7.72;;;5.30;;
11034;SDS011;5571;48.110;-1.706;2023-09-18T06:04:45;7.63;;;5.80;;
11034;SDS011;5571;48.110;-1.706;2023-09-18T06:07:11;11.57;;;5.72;;
11034;SDS011;5571;48.110;-1.706;2023-09-18T06:09:38;8.63;;;5.28;;
11034;SDS011;5571;48.110;-1.706;2023-09-18T06:12:04;8.07;;;5.38;;
11034;SDS011;5571;48.110;-1.706;2023-09-18T06:14:30;9.60;;;5.75;;
11034;SDS011;5571;48.110;-1.706;2023-09-18T06:16:56;6.38;;;5.70;;
11034;SDS011;5571;48.110;-1.706;2023-09-18T06:19:22;12.80;;;5.85;;
11034;SDS011;5571;48.110;-1.706;2023-09-18T06:21:48;13.65;;;5.78;;
11034;SDS011;5571;48.110;-1.706;2023-09-18T06:24:13;10.02;;;6.03;;
11034;SDS011;5571;48.110;-1.706;2023-09-18T06:26:39;10.63;;;5.55;;
11034;SDS011;5571;48.110;-1.706;2023-09-18T06:29:05;8.07;;;5.50;;
11034;SDS011;5571;48.110;-1.706;2023-09-18T06:31:31;10.38;;;5.78;;
11034;SDS011;5571;48.110;-1.706;2023-09-18T06:33:56;12.90;;;5.30;;
11034;SDS011;5571;48.110;-1.706;2023-09-18T06:36:22;7.40;;;5.65;;
11034;SDS011;5571;48.110;-1.706;2023-09-18T06:38:48;12.98;;;5.40;;
11034;SDS011;5571;48.110;-1.706;2023-09-18T06:41:13;8.63;;;5.18;;
11034;SDS011;5571;48.110;-1.706;2023-09-18T06:43:39;8.00;;;4.90;;
11034;SDS011;5571;48.110;-1.706;2023-09-18T06:46:06;10.68;;;5.10;;
11034;SDS011;5571;48.110;-1.706;2023-09-18T06:48:32;9.90;;;4.88;;
11034;SDS011;5571;48.110;-1.706;2023-09-18T06:50:58;9.90;;;5.07;;
11034;SDS011;5571;48.110;-1.706;2023-09-18T06:53:27;12.27;;;5.55;;
11034;SDS011;5571;48.110;-1.706;2023-09-18T06:55:53;12.02;;;4.78;;
11034;SDS011;5571;48.110;-1.706;2023-09-18T06:58:19;8.75;;;4.78;;
11034;SDS011;5571;48.110;-1.706;2023-09-18T07:00:45;8.10;;;4.53;;
11034;SDS011;5571;48.110;-1.706;2023-09-18T07:03:11;8.52;;;4.53;;
11034;SDS011;5571;48.110;-1.706;2023-09-18T07:05:37;6.68;;;4.13;;
11034;SDS011;5571;48.110;-1.706;2023-09-18T07:08:05;10.52;;;4.82;;
11034;SDS011;5571;48.110;-1.706;2023-09-18T07:10:35;6.07;;;4.15;;
11034;SDS011;5571;48.110;-1.706;2023-09-18T07:13:00;7.93;;;4.57;;
11034;SDS011;5571;48.110;-1.706;2023-09-18T07:15:26;8.68;;;4.25;;
11034;SDS011;5571;48.110;-1.706;2023-09-18T07:17:52;8.52;;;4.53;;
11034;SDS011;5571;48.110;-1.706;2023-09-18T07:20:17;9.07;;;4.22;;
11034;SDS011;5571;48.110;-1.706;2023-09-18T07:22:45;10.73;;;4.13;;
11034;SDS011;5571;48.110;-1.706;2023-09-18T07:25:12;5.72;;;3.70;;
11034;SDS011;5571;48.110;-1.706;2023-09-18T07:27:38;4.35;;;3.63;;
11034;SDS011;5571;48.110;-1.706;2023-09-18T07:30:09;5.50;;;3.47;;
11034;SDS011;5571;48.110;-1.706;2023-09-18T07:32:35;7.38;;;3.63;;
11034;SDS011;5571;48.110;-1.706;2023-09-18T07:35:01;5.95;;;3.47;;
11034;SDS011;5571;48.110;-1.706;2023-09-18T07:37:29;5.35;;;3.75;;
11034;SDS011;5571;48.110;-1.706;2023-09-18T07:39:55;11.60;;;3.78;;
11034;SDS011;5571;48.110;-1.706;2023-09-18T07:42:23;7.43;;;3.25;;
11034;SDS011;5571;48.110;-1.706;2023-09-18T07:44:52;3.90;;;3.10;;
11034;SDS011;5571;48.110;-1.706;2023-09-18T07:47:18;4.68;;;3.30;;
11034;SDS011;5571;48.110;-1.706;2023-09-18T07:49:44;7.95;;;3.60;;
11034;SDS011;5571;48.110;-1.706;2023-09-18T07:52:10;6.00;;;3.25;;
11034;SDS011;5571;48.110;-1.706;2023-09-18T07:54:36;5.47;;;3.13;;
11034;SDS011;5571;48.110;-1.706;2023-09-18T07:57:02;4.53;;;2.90;;
11034;SDS011;5571;48.110;-1.706;2023-09-18T07:59:27;6.47;;;3.25;;
11034;SDS011;5571;48.110;-1.706;2023-09-18T08:01:53;6.93;;;3.20;;
11034;SDS011;5571;48.110;-1.706;2023-09-18T08:04:19;6.60;;;3.20;;
11034;SDS011;5571;48.110;-1.706;2023-09-18T08:06:45;6.35;;;3.35;;
11034;SDS011;5571;48.110;-1.706;2023-09-18T08:09:12;3.58;;;2.72;;
11034;SDS011;5571;48.110;-1.706;2023-09-18T08:11:39;5.15;;;2.60;;
11034;SDS011;5571;48.110;-1.706;2023-09-18T08:14:08;9.35;;;2.85;;
11034;SDS011;5571;48.110;-1.706;2023-09-18T08:16:34;2.63;;;2.35;;
11034;SDS011;5571;48.110;-1.706;2023-09-18T08:19:03;4.82;;;2.60;;
11034;SDS011;5571;48.110;-1.706;2023-09-18T08:21:29;8.45;;;2.70;;
11034;SDS011;5571;48.110;-1.706;2023-09-18T08:23:55;4.03;;;2.33;;
11034;SDS011;5571;48.110;-1.706;2023-09-18T08:26:21;7.60;;;2.33;;
11034;SDS011;5571;48.110;-1.706;2023-09-18T08:28:47;6.85;;;2.65;;
11034;SDS011;5571;48.110;-1.706;2023-09-18T08:31:13;11.27;;;2.72;;
11034;SDS011;5571;48.110;-1.706;2023-09-18T08:33:41;6.90;;;2.40;;
11034;SDS011;5571;48.110;-1.706;2023-09-18T08:36:07;7.75;;;2.42;;
11034;SDS011;5571;48.110;-1.706;2023-09-18T08:38:33;10.98;;;2.72;;
11034;SDS011;5571;48.110;-1.706;2023-09-18T08:40:59;10.32;;;2.60;;
11034;SDS011;5571;48.110;-1.706;2023-09-18T08:43:25;6.00;;;2.50;;
11034;SDS011;5571;48.110;-1.706;2023-09-18T08:45:52;9.32;;;2.72;;
11034;SDS011;5571;48.110;-1.706;2023-09-18T08:48:19;6.70;;;2.35;;
11034;SDS011;5571;48.110;-1.706;2023-09-18T08:50:46;4.20;;;2.10;;
11034;SDS011;5571;48.110;-1.706;2023-09-18T08:53:13;3.80;;;2.30;;
11034;SDS011;5571;48.110;-1.706;2023-09-18T08:55:39;3.38;;;2.38;;
11034;SDS011;5571;48.110;-1.706;2023-09-18T08:58:06;5.80;;;1.88;;
11034;SDS011;5571;48.110;-1.706;2023-09-18T09:00:38;5.55;;;2.58;;
11034;SDS011;5571;48.110;-1.706;2023-09-18T09:03:04;7.53;;;2.60;;
11034;SDS011;5571;48.110;-1.706;2023-09-18T09:05:30;4.65;;;2.53;;
11034;SDS011;5571;48.110;-1.706;2023-09-18T09:07:56;7.10;;;2.50;;
11034;SDS011;5571;48.110;-1.706;2023-09-18T09:10:22;6.00;;;2.47;;
11034;SDS011;5571;48.110;-1.706;2023-09-18T09:12:49;8.52;;;2.65;;
11034;SDS011;5571;48.110;-1.706;2023-09-18T09:15:15;9.82;;;2.58;;
11034;SDS011;5571;48.110;-1.706;2023-09-18T09:17:41;6.53;;;2.60;;
11034;SDS011;5571;48.110;-1.706;2023-09-18T09:20:12;5.10;;;2.40;;
11034;SDS011;5571;48.110;-1.706;2023-09-18T09:22:39;3.00;;;2.20;;
11034;SDS011;5571;48.110;-1.706;2023-09-18T09:25:27;8.02;;;2.58;;
11034;SDS011;5571;48.110;-1.706;2023-09-18T09:27:53;4.75;;;2.30;;
11034;SDS011;5571;48.110;-1.706;2023-09-18T09:30:25;5.03;;;2.30;;
11034;SDS011;5571;48.110;-1.706;2023-09-18T09:32:53;4.82;;;2.30;;
11034;SDS011;5571;48.110;-1.706;2023-09-18T09:35:25;4.38;;;2.22;;
11034;SDS011;5571;48.110;-1.706;2023-09-18T09:37:52;7.53;;;2.33;;
11034;SDS011;5571;48.110;-1.706;2023-09-18T09:40:20;4.32;;;2.35;;
11034;SDS011;5571;48.110;-1.706;2023-09-18T09:42:46;4.85;;;2.20;;
11034;SDS011;5571;48.110;-1.706;2023-09-18T09:45:13;7.15;;;2.45;;
11034;SDS011;5571;48.110;-1.706;2023-09-18T09:47:41;3.50;;;2.38;;
11034;SDS011;5571;48.110;-1.706;2023-09-18T09:50:10;6.25;;;2.60;;
11034;SDS011;5571;48.110;-1.706;2023-09-18T09:52:44;6.38;;;2.42;;
11034;SDS011;5571;48.110;-1.706;2023-09-18T09:55:18;7.07;;;2.22;;
11034;SDS011;5571;48.110;-1.706;2023-09-18T09:57:49;5.60;;;2.55;;
11034;SDS011;5571;48.110;-1.706;2023-09-18T10:00:16;6.43;;;2.47;;
11034;SDS011;5571;48.110;-1.706;2023-09-18T10:03:09;7.32;;;2.55;;
11034;SDS011;5571;48.110;-1.706;2023-09-18T10:05:40;5.10;;;2.70;;
11034;SDS011;5571;48.110;-1.706;2023-09-18T10:10:36;6.25;;;2.50;;
11034;SDS011;5571;48.110;-1.706;2023-09-18T10:13:12;8.85;;;2.30;;
11034;SDS011;5571;48.110;-1.706;2023-09-18T10:15:42;5.70;;;2.47;;
11034;SDS011;5571;48.110;-1.706;2023-09-18T10:18:12;4.55;;;2.38;;
11034;SDS011;5571;48.110;-1.706;2023-09-18T10:20:45;6.13;;;2.22;;
11034;SDS011;5571;48.110;-1.706;2023-09-18T10:23:20;4.82;;;2.20;;
11034;SDS011;5571;48.110;-1.706;2023-09-18T10:25:53;6.47;;;2.30;;
11034;SDS011;5571;48.110;-1.706;2023-09-18T10:28:23;4.50;;;2.13;;
11034;SDS011;5571;48.110;-1.706;2023-09-18T10:30:52;5.28;;;2.20;;
11034;SDS011;5571;48.110;-1.706;2023-09-18T10:33:21;6.60;;;2.10;;
11034;SDS011;5571;48.110;-1.706;2023-09-18T10:35:47;6.65;;;2.17;;
11034;SDS011;5571;48.110;-1.706;2023-09-18T10:38:13;5.50;;;2.28;;
11034;SDS011;5571;48.110;-1.706;2023-09-18T10:40:41;7.43;;;2.30;;
11034;SDS011;5571;48.110;-1.706;2023-09-18T10:43:08;4.55;;;2.00;;
11034;SDS011;5571;48.110;-1.706;2023-09-18T10:45:36;5.18;;;2.25;;
11034;SDS011;5571;48.110;-1.706;2023-09-18T10:48:03;4.97;;;2.10;;
11034;SDS011;5571;48.110;-1.706;2023-09-18T10:50:33;6.18;;;2.28;;
11034;SDS011;5571;48.110;-1.706;2023-09-18T10:52:59;4.13;;;2.00;;
11034;SDS011;5571;48.110;-1.706;2023-09-18T10:55:25;4.07;;;2.00;;
11034;SDS011;5571;48.110;-1.706;2023-09-18T10:57:52;4.13;;;1.98;;
11034;SDS011;5571;48.110;-1.706;2023-09-18T11:00:20;2.53;;;1.88;;
11034;SDS011;5571;48.110;-1.706;2023-09-18T11:02:52;4.65;;;2.00;;
11034;SDS011;5571;48.110;-1.706;2023-09-18T11:05:34;2.90;;;1.90;;
11034;SDS011;5571;48.110;-1.706;2023-09-18T11:13:45;5.18;;;1.75;;
11034;SDS011;5571;48.110;-1.706;2023-09-18T11:18:40;5.28;;;1.80;;
11034;SDS011;5571;48.110;-1.706;2023-09-18T11:21:09;2.85;;;1.80;;
11034;SDS011;5571;48.110;-1.706;2023-09-18T11:23:36;4.28;;;2.25;;
11034;SDS011;5571;48.110;-1.706;2023-09-18T11:26:04;2.28;;;1.70;;
11034;SDS011;5571;48.110;-1.706;2023-09-18T11:28:32;2.95;;;1.50;;
11034;SDS011;5571;48.110;-1.706;2023-09-18T11:30:58;3.47;;;1.80;;
11034;SDS011;5571;48.110;-1.706;2023-09-18T11:33:38;2.65;;;1.80;;
11034;SDS011;5571;48.110;-1.706;2023-09-18T11:36:06;1.75;;;1.48;;
11034;SDS011;5571;48.110;-1.706;2023-09-18T11:38:50;3.67;;;1.60;;
11034;SDS011;5571;48.110;-1.706;2023-09-18T11:41:24;3.63;;;1.50;;
11034;SDS011;5571;48.110;-1.706;2023-09-18T11:43:52;2.83;;;1.60;;
11034;SDS011;5571;48.110;-1.706;2023-09-18T11:46:49;4.22;;;1.67;;
11034;SDS011;5571;48.110;-1.706;2023-09-18T11:49:20;3.33;;;1.60;;
11034;SDS011;5571;48.110;-1.706;2023-09-18T11:51:47;9.30;;;1.65;;
11034;SDS011;5571;48.110;-1.706;2023-09-18T11:54:13;4.45;;;1.63;;
11034;SDS011;5571;48.110;-1.706;2023-09-18T11:56:40;3.20;;;1.65;;
11034;SDS011;5571;48.110;-1.706;2023-09-18T11:59:06;4.05;;;1.65;;
11034;SDS011;5571;48.110;-1.706;2023-09-18T12:01:32;3.70;;;1.42;;
11034;SDS011;5571;48.110;-1.706;2023-09-18T12:04:11;2.10;;;1.70;;
11034;SDS011;5571;48.110;-1.706;2023-09-18T12:06:40;3.88;;;1.58;;
11034;SDS011;5571;48.110;-1.706;2023-09-18T12:09:09;3.00;;;1.90;;
11034;SDS011;5571;48.110;-1.706;2023-09-18T12:11:37;4.72;;;2.00;;
11034;SDS011;5571;48.110;-1.706;2023-09-18T12:14:07;6.43;;;1.85;;
11034;SDS011;5571;48.110;-1.706;2023-09-18T12:16:40;1.40;;;1.30;;
11034;SDS011;5571;48.110;-1.706;2023-09-18T12:19:08;3.28;;;1.55;;
11034;SDS011;5571;48.110;-1.706;2023-09-18T12:21:41;2.70;;;1.85;;
11034;SDS011;5571;48.110;-1.706;2023-09-18T12:24:13;4.93;;;2.13;;
11034;SDS011;5571;48.110;-1.706;2023-09-18T12:26:51;5.22;;;1.90;;
11034;SDS011;5571;48.110;-1.706;2023-09-18T12:29:18;3.28;;;1.80;;
11034;SDS011;5571;48.110;-1.706;2023-09-18T12:31:44;4.68;;;2.00;;
11034;SDS011;5571;48.110;-1.706;2023-09-18T12:34:17;2.50;;;1.38;;
11034;SDS011;5571;48.110;-1.706;2023-09-18T12:36:46;1.98;;;1.40;;
11034;SDS011;5571;48.110;-1.706;2023-09-18T12:39:16;5.18;;;1.67;;
11034;SDS011;5571;48.110;-1.706;2023-09-18T12:41:45;2.38;;;1.60;;
11034;SDS011;5571;48.110;-1.706;2023-09-18T12:44:12;1.45;;;1.35;;
11034;SDS011;5571;48.110;-1.706;2023-09-18T12:46:39;2.63;;;1.70;;
11034;SDS011;5571;48.110;-1.706;2023-09-18T12:49:21;3.38;;;1.80;;
11034;SDS011;5571;48.110;-1.706;2023-09-18T12:54:38;2.40;;;1.38;;
11034;SDS011;5571;48.110;-1.706;2023-09-18T12:57:08;5.78;;;1.90;;
11034;SDS011;5571;48.110;-1.706;2023-09-18T12:59:35;2.42;;;1.52;;
11034;SDS011;5571;48.110;-1.706;2023-09-18T13:02:03;3.22;;;2.00;;
11034;SDS011;5571;48.110;-1.706;2023-09-18T13:04:30;4.30;;;1.70;;
11034;SDS011;5571;48.110;-1.706;2023-09-18T13:07:09;1.52;;;1.42;;
11034;SDS011;5571;48.110;-1.706;2023-09-18T13:09:37;3.92;;;1.75;;
11034;SDS011;5571;48.110;-1.706;2023-09-18T13:12:03;3.15;;;1.75;;
11034;SDS011;5571;48.110;-1.706;2023-09-18T13:14:29;4.35;;;2.10;;
11034;SDS011;5571;48.110;-1.706;2023-09-18T13:17:01;1.92;;;1.50;;
11034;SDS011;5571;48.110;-1.706;2023-09-18T13:19:29;2.05;;;1.85;;
11034;SDS011;5571;48.110;-1.706;2023-09-18T13:21:55;3.92;;;1.50;;
11034;SDS011;5571;48.110;-1.706;2023-09-18T13:24:30;3.95;;;1.25;;
11034;SDS011;5571;48.110;-1.706;2023-09-18T13:26:56;2.25;;;1.40;;
11034;SDS011;5571;48.110;-1.706;2023-09-18T13:29:24;3.38;;;1.50;;
11034;SDS011;5571;48.110;-1.706;2023-09-18T13:31:49;2.85;;;1.35;;
11034;SDS011;5571;48.110;-1.706;2023-09-18T13:34:16;1.55;;;1.02;;
11034;SDS011;5571;48.110;-1.706;2023-09-18T13:36:46;2.22;;;1.17;;
11034;SDS011;5571;48.110;-1.706;2023-09-18T13:39:12;5.10;;;1.33;;
11034;SDS011;5571;48.110;-1.706;2023-09-18T13:41:39;1.90;;;1.08;;
11034;SDS011;5571;48.110;-1.706;2023-09-18T13:44:06;2.50;;;1.40;;
11034;SDS011;5571;48.110;-1.706;2023-09-18T13:46:32;1.88;;;1.05;;
11034;SDS011;5571;48.110;-1.706;2023-09-18T13:49:01;4.03;;;1.50;;
11034;SDS011;5571;48.110;-1.706;2023-09-18T13:51:28;2.95;;;1.25;;
11034;SDS011;5571;48.110;-1.706;2023-09-18T13:53:55;2.72;;;1.60;;
11034;SDS011;5571;48.110;-1.706;2023-09-18T13:56:21;2.25;;;1.50;;
11034;SDS011;5571;48.110;-1.706;2023-09-18T13:58:47;2.78;;;1.10;;
11034;SDS011;5571;48.110;-1.706;2023-09-18T14:01:13;5.10;;;1.50;;
11034;SDS011;5571;48.110;-1.706;2023-09-18T14:03:40;2.17;;;1.40;;
11034;SDS011;5571;48.110;-1.706;2023-09-18T14:06:08;6.80;;;1.55;;
11034;SDS011;5571;48.110;-1.706;2023-09-18T14:08:34;1.92;;;1.15;;
11034;SDS011;5571;48.110;-1.706;2023-09-18T14:11:00;3.05;;;1.48;;
11034;SDS011;5571;48.110;-1.706;2023-09-18T14:13:25;4.85;;;1.30;;
11034;SDS011;5571;48.110;-1.706;2023-09-18T14:15:51;6.47;;;1.52;;
11034;SDS011;5571;48.110;-1.706;2023-09-18T14:18:17;4.63;;;1.60;;
11034;SDS011;5571;48.110;-1.706;2023-09-18T14:20:43;2.85;;;1.50;;
11034;SDS011;5571;48.110;-1.706;2023-09-18T14:23:09;2.00;;;1.30;;
11034;SDS011;5571;48.110;-1.706;2023-09-18T14:25:34;3.33;;;1.60;;
11034;SDS011;5571;48.110;-1.706;2023-09-18T14:28:00;3.72;;;1.58;;
11034;SDS011;5571;48.110;-1.706;2023-09-18T14:30:26;2.20;;;1.30;;
11034;SDS011;5571;48.110;-1.706;2023-09-18T14:32:56;4.05;;;1.30;;
11034;SDS011;5571;48.110;-1.706;2023-09-18T14:35:22;2.38;;;1.00;;
11034;SDS011;5571;48.110;-1.706;2023-09-18T14:37:48;2.42;;;1.30;;
11034;SDS011;5571;48.110;-1.706;2023-09-18T14:40:14;3.00;;;1.50;;
11034;SDS011;5571;48.110;-1.706;2023-09-18T14:42:40;2.80;;;1.60;;
11034;SDS011;5571;48.110;-1.706;2023-09-18T14:45:05;4.25;;;1.40;;
11034;SDS011;5571;48.110;-1.706;2023-09-18T14:47:31;3.53;;;1.60;;
11034;SDS011;5571;48.110;-1.706;2023-09-18T14:49:57;5.57;;;1.40;;
11034;SDS011;5571;48.110;-1.706;2023-09-18T14:52:23;3.13;;;1.25;;
11034;SDS011;5571;48.110;-1.706;2023-09-18T14:54:51;5.32;;;1.90;;
11034;SDS011;5571;48.110;-1.706;2023-09-18T14:57:17;4.97;;;1.48;;
11034;SDS011;5571;48.110;-1.706;2023-09-18T14:59:42;3.13;;;1.65;;
11034;SDS011;5571;48.110;-1.706;2023-09-18T15:02:12;3.75;;;1.88;;
11034;SDS011;5571;48.110;-1.706;2023-09-18T15:04:39;3.83;;;2.00;;
11034;SDS011;5571;48.110;-1.706;2023-09-18T15:07:05;2.78;;;1.80;;